Airport View

Enter AWOS ICAO identifier for current METAR.

ex. KFNL

KECU 112215Z AUTO VRB04G11KT 10SM CLR 13/02 A3039 RMK AO2

11 Dec 2019 22:27

Frequency: 118.175

Phone: 830-683-2425

Other Area AWOS: KJCT - KSOA - KUVA - KDLF

TAF KJCT 111735Z 1118/1218 15006KT P6SM SCT008 FM111900 14006KT P6SM SKC FM121300 20003KT 5SM BR SCT015